sensor_id;sensor_type;location;lat;lon;timestamp;temperature;humidity
47779;DHT22;33538;48.432;11.350;2022-10-22T00:02:20;14.40;99.90
47779;DHT22;33538;48.432;11.350;2022-10-22T00:04:48;14.40;99.90
47779;DHT22;33538;48.432;11.350;2022-10-22T00:07:16;14.40;99.90
47779;DHT22;33538;48.432;11.350;2022-10-22T00:09:43;14.40;99.90
47779;DHT22;33538;48.432;11.350;2022-10-22T00:12:11;14.40;99.90
47779;DHT22;33538;48.432;11.350;2022-10-22T00:14:38;14.40;99.90
47779;DHT22;33538;48.432;11.350;2022-10-22T00:17:06;14.40;99.90
47779;DHT22;33538;48.432;11.350;2022-10-22T00:19:37;14.40;99.90
47779;DHT22;33538;48.432;11.350;2022-10-22T00:22:04;14.40;99.90
47779;DHT22;33538;48.432;11.350;2022-10-22T00:24:31;14.40;99.90
47779;DHT22;33538;48.432;11.350;2022-10-22T00:26:58;14.40;99.90
47779;DHT22;33538;48.432;11.350;2022-10-22T00:29:25;14.40;99.90
47779;DHT22;33538;48.432;11.350;2022-10-22T00:31:51;14.40;99.90
47779;DHT22;33538;48.432;11.350;2022-10-22T00:34:21;14.40;99.90
47779;DHT22;33538;48.432;11.350;2022-10-22T00:36:48;14.40;99.90
47779;DHT22;33538;48.432;11.350;2022-10-22T00:39:17;14.40;99.90
47779;DHT22;33538;48.432;11.350;2022-10-22T00:41:45;14.40;99.90
47779;DHT22;33538;48.432;11.350;2022-10-22T00:47:13;14.40;99.90
47779;DHT22;33538;48.432;11.350;2022-10-22T00:49:42;14.40;99.90
47779;DHT22;33538;48.432;11.350;2022-10-22T00:52:10;14.40;99.90
47779;DHT22;33538;48.432;11.350;2022-10-22T00:54:37;14.40;99.90
47779;DHT22;33538;48.432;11.350;2022-10-22T00:57:05;14.40;99.90
47779;DHT22;33538;48.432;11.350;2022-10-22T00:59:32;14.40;99.90
47779;DHT22;33538;48.432;11.350;2022-10-22T01:01:59;14.40;99.90
47779;DHT22;33538;48.432;11.350;2022-10-22T01:04:26;14.40;99.90
47779;DHT22;33538;48.432;11.350;2022-10-22T01:06:54;14.40;99.90
47779;DHT22;33538;48.432;11.350;2022-10-22T01:09:26;14.40;99.90
47779;DHT22;33538;48.432;11.350;2022-10-22T01:12:02;14.40;99.90
47779;DHT22;33538;48.432;11.350;2022-10-22T01:14:39;14.40;99.90
47779;DHT22;33538;48.432;11.350;2022-10-22T01:17:17;14.40;99.90
47779;DHT22;33538;48.432;11.350;2022-10-22T01:20:00;14.40;99.90
47779;DHT22;33538;48.432;11.350;2022-10-22T01:22:33;14.40;99.90
47779;DHT22;33538;48.432;11.350;2022-10-22T01:25:06;14.40;99.90
47779;DHT22;33538;48.432;11.350;2022-10-22T01:27:41;14.40;99.90
47779;DHT22;33538;48.432;11.350;2022-10-22T01:30:12;14.40;99.90
47779;DHT22;33538;48.432;11.350;2022-10-22T01:32:42;14.40;99.90
47779;DHT22;33538;48.432;11.350;2022-10-22T01:35:14;14.40;99.90
47779;DHT22;33538;48.432;11.350;2022-10-22T01:37:45;14.40;99.90
47779;DHT22;33538;48.432;11.350;2022-10-22T01:40:13;14.40;99.90
47779;DHT22;33538;48.432;11.350;2022-10-22T01:42:41;14.40;99.90
47779;DHT22;33538;48.432;11.350;2022-10-22T01:45:12;14.40;99.90
47779;DHT22;33538;48.432;11.350;2022-10-22T01:47:46;14.40;99.90
47779;DHT22;33538;48.432;11.350;2022-10-22T01:50:27;14.40;99.90
47779;DHT22;33538;48.432;11.350;2022-10-22T01:56:00;14.40;99.90
47779;DHT22;33538;48.432;11.350;2022-10-22T01:58:38;14.40;99.90
47779;DHT22;33538;48.432;11.350;2022-10-22T02:01:14;14.40;99.90
47779;DHT22;33538;48.432;11.350;2022-10-22T02:03:48;14.40;99.90
47779;DHT22;33538;48.432;11.350;2022-10-22T02:06:19;14.40;99.90
47779;DHT22;33538;48.432;11.350;2022-10-22T02:08:48;14.40;99.90
47779;DHT22;33538;48.432;11.350;2022-10-22T02:11:16;14.40;99.90
47779;DHT22;33538;48.432;11.350;2022-10-22T02:13:45;14.40;99.90
47779;DHT22;33538;48.432;11.350;2022-10-22T02:16:17;14.40;99.90
47779;DHT22;33538;48.432;11.350;2022-10-22T02:18:49;14.40;99.90
47779;DHT22;33538;48.432;11.350;2022-10-22T02:21:18;14.40;99.90
47779;DHT22;33538;48.432;11.350;2022-10-22T02:23:45;14.40;99.90
47779;DHT22;33538;48.432;11.350;2022-10-22T02:26:15;14.40;99.90
47779;DHT22;33538;48.432;11.350;2022-10-22T02:28:51;14.40;99.90
47779;DHT22;33538;48.432;11.350;2022-10-22T02:31:25;14.40;99.90
47779;DHT22;33538;48.432;11.350;2022-10-22T02:33:55;14.40;99.90
47779;DHT22;33538;48.432;11.350;2022-10-22T02:36:24;14.40;99.90
47779;DHT22;33538;48.432;11.350;2022-10-22T02:38:51;14.40;99.90
47779;DHT22;33538;48.432;11.350;2022-10-22T02:41:19;14.40;99.90
47779;DHT22;33538;48.432;11.350;2022-10-22T02:43:49;14.40;99.90
47779;DHT22;33538;48.432;11.350;2022-10-22T02:46:16;14.40;99.90
47779;DHT22;33538;48.432;11.350;2022-10-22T02:48:44;14.40;99.90
47779;DHT22;33538;48.432;11.350;2022-10-22T02:51:11;14.40;99.90
47779;DHT22;33538;48.432;11.350;2022-10-22T02:53:38;14.40;99.90
47779;DHT22;33538;48.432;11.350;2022-10-22T02:56:05;14.40;99.90
47779;DHT22;33538;48.432;11.350;2022-10-22T02:58:32;14.40;99.90
47779;DHT22;33538;48.432;11.350;2022-10-22T03:00:59;14.40;99.90
47779;DHT22;33538;48.432;11.350;2022-10-22T03:03:25;14.40;99.90
47779;DHT22;33538;48.432;11.350;2022-10-22T03:05:53;14.40;99.90
47779;DHT22;33538;48.432;11.350;2022-10-22T03:08:20;14.40;99.90
47779;DHT22;33538;48.432;11.350;2022-10-22T03:10:47;14.40;99.90
47779;DHT22;33538;48.432;11.350;2022-10-22T03:13:14;14.40;99.90
47779;DHT22;33538;48.432;11.350;2022-10-22T03:15:41;14.40;99.90
47779;DHT22;33538;48.432;11.350;2022-10-22T03:18:08;14.40;99.90
47779;DHT22;33538;48.432;11.350;2022-10-22T03:20:34;14.40;99.90
47779;DHT22;33538;48.432;11.350;2022-10-22T03:23:02;14.40;99.90
47779;DHT22;33538;48.432;11.350;2022-10-22T03:25:30;14.40;99.90
47779;DHT22;33538;48.432;11.350;2022-10-22T03:28:01;14.30;99.90
47779;DHT22;33538;48.432;11.350;2022-10-22T03:30:28;14.30;99.90
47779;DHT22;33538;48.432;11.350;2022-10-22T03:32:55;14.30;99.90
47779;DHT22;33538;48.432;11.350;2022-10-22T03:35:22;14.30;99.90
47779;DHT22;33538;48.432;11.350;2022-10-22T03:37:49;14.30;99.90
47779;DHT22;33538;48.432;11.350;2022-10-22T03:40:18;14.30;99.90
47779;DHT22;33538;48.432;11.350;2022-10-22T03:42:45;14.30;99.90
47779;DHT22;33538;48.432;11.350;2022-10-22T03:45:12;14.30;99.90
47779;DHT22;33538;48.432;11.350;2022-10-22T03:47:39;14.30;99.90
47779;DHT22;33538;48.432;11.350;2022-10-22T03:50:08;14.30;99.90
47779;DHT22;33538;48.432;11.350;2022-10-22T03:52:36;14.30;99.90
47779;DHT22;33538;48.432;11.350;2022-10-22T03:55:03;14.30;99.90
47779;DHT22;33538;48.432;11.350;2022-10-22T03:57:31;14.30;99.90
47779;DHT22;33538;48.432;11.350;2022-10-22T03:59:58;14.20;99.90
47779;DHT22;33538;48.432;11.350;2022-10-22T04:02:25;14.20;99.90
47779;DHT22;33538;48.432;11.350;2022-10-22T04:04:52;14.30;99.90
47779;DHT22;33538;48.432;11.350;2022-10-22T04:07:18;14.30;99.90
47779;DHT22;33538;48.432;11.350;2022-10-22T04:09:45;14.20;99.90
47779;DHT22;33538;48.432;11.350;2022-10-22T04:12:12;14.20;99.90
47779;DHT22;33538;48.432;11.350;2022-10-22T04:14:47;14.30;99.90
47779;DHT22;33538;48.432;11.350;2022-10-22T04:17:14;14.20;99.90
47779;DHT22;33538;48.432;11.350;2022-10-22T04:19:41;14.20;99.90
47779;DHT22;33538;48.432;11.350;2022-10-22T04:22:07;14.30;99.90
47779;DHT22;33538;48.432;11.350;2022-10-22T04:24:34;14.20;99.90
47779;DHT22;33538;48.432;11.350;2022-10-22T04:27:01;14.20;99.90
47779;DHT22;33538;48.432;11.350;2022-10-22T04:29:28;14.20;99.90
47779;DHT22;33538;48.432;11.350;2022-10-22T04:31:56;14.20;99.90
47779;DHT22;33538;48.432;11.350;2022-10-22T04:34:26;14.20;99.90
47779;DHT22;33538;48.432;11.350;2022-10-22T04:36:53;14.20;99.90
47779;DHT22;33538;48.432;11.350;2022-10-22T04:39:20;14.20;99.90
47779;DHT22;33538;48.432;11.350;2022-10-22T04:41:46;14.20;99.90
47779;DHT22;33538;48.432;11.350;2022-10-22T04:44:13;14.20;99.90
47779;DHT22;33538;48.432;11.350;2022-10-22T04:46:44;14.20;99.90
47779;DHT22;33538;48.432;11.350;2022-10-22T04:49:15;14.20;99.90
47779;DHT22;33538;48.432;11.350;2022-10-22T04:51:42;14.20;99.90
47779;DHT22;33538;48.432;11.350;2022-10-22T04:54:09;14.20;99.90
47779;DHT22;33538;48.432;11.350;2022-10-22T04:56:36;14.10;99.90
47779;DHT22;33538;48.432;11.350;2022-10-22T04:59:04;14.10;99.90
47779;DHT22;33538;48.432;11.350;2022-10-22T05:01:33;14.20;99.90
47779;DHT22;33538;48.432;11.350;2022-10-22T05:04:05;14.20;99.90
47779;DHT22;33538;48.432;11.350;2022-10-22T05:06:35;14.20;99.90
47779;DHT22;33538;48.432;11.350;2022-10-22T05:09:05;14.10;99.90
47779;DHT22;33538;48.432;11.350;2022-10-22T05:11:34;14.10;99.90
47779;DHT22;33538;48.432;11.350;2022-10-22T05:14:04;14.10;99.90
47779;DHT22;33538;48.432;11.350;2022-10-22T05:16:32;14.10;99.90
47779;DHT22;33538;48.432;11.350;2022-10-22T05:19:01;14.10;99.90
47779;DHT22;33538;48.432;11.350;2022-10-22T05:21:28;14.10;99.90
47779;DHT22;33538;48.432;11.350;2022-10-22T05:23:56;14.10;99.90
47779;DHT22;33538;48.432;11.350;2022-10-22T05:26:23;14.10;99.90
47779;DHT22;33538;48.432;11.350;2022-10-22T05:28:51;14.10;99.90
47779;DHT22;33538;48.432;11.350;2022-10-22T05:31:19;14.00;99.90
47779;DHT22;33538;48.432;11.350;2022-10-22T05:33:46;14.10;99.90
47779;DHT22;33538;48.432;11.350;2022-10-22T05:36:17;14.10;99.90
47779;DHT22;33538;48.432;11.350;2022-10-22T05:38:46;14.00;99.90
47779;DHT22;33538;48.432;11.350;2022-10-22T05:41:15;14.00;99.90
47779;DHT22;33538;48.432;11.350;2022-10-22T05:43:43;14.00;99.90
47779;DHT22;33538;48.432;11.350;2022-10-22T05:46:11;14.00;99.90
47779;DHT22;33538;48.432;11.350;2022-10-22T05:48:39;14.00;99.90
47779;DHT22;33538;48.432;11.350;2022-10-22T05:51:08;14.00;99.90
47779;DHT22;33538;48.432;11.350;2022-10-22T05:53:37;14.00;99.90
47779;DHT22;33538;48.432;11.350;2022-10-22T05:56:06;14.00;99.90
47779;DHT22;33538;48.432;11.350;2022-10-22T05:58:35;14.00;99.90
47779;DHT22;33538;48.432;11.350;2022-10-22T06:01:03;14.00;99.90
47779;DHT22;33538;48.432;11.350;2022-10-22T06:03:30;14.00;99.90
47779;DHT22;33538;48.432;11.350;2022-10-22T06:05:59;14.00;99.90
47779;DHT22;33538;48.432;11.350;2022-10-22T06:08:26;14.00;99.90
47779;DHT22;33538;48.432;11.350;2022-10-22T06:10:53;14.00;99.90
47779;DHT22;33538;48.432;11.350;2022-10-22T06:13:20;14.00;99.90
47779;DHT22;33538;48.432;11.350;2022-10-22T06:15:48;14.00;99.90
47779;DHT22;33538;48.432;11.350;2022-10-22T06:18:20;13.90;99.90
47779;DHT22;33538;48.432;11.350;2022-10-22T06:20:46;13.90;99.90
47779;DHT22;33538;48.432;11.350;2022-10-22T06:23:13;13.90;99.90
47779;DHT22;33538;48.432;11.350;2022-10-22T06:25:40;13.90;99.90
47779;DHT22;33538;48.432;11.350;2022-10-22T06:28:07;13.90;99.90
47779;DHT22;33538;48.432;11.350;2022-10-22T06:30:36;13.90;99.90
47779;DHT22;33538;48.432;11.350;2022-10-22T06:33:04;13.90;99.90
47779;DHT22;33538;48.432;11.350;2022-10-22T06:35:31;13.90;99.90
47779;DHT22;33538;48.432;11.350;2022-10-22T06:37:57;13.90;99.90
47779;DHT22;33538;48.432;11.350;2022-10-22T06:40:24;13.90;99.90
47779;DHT22;33538;48.432;11.350;2022-10-22T06:42:51;13.90;99.90
47779;DHT22;33538;48.432;11.350;2022-10-22T06:45:18;13.90;99.90
47779;DHT22;33538;48.432;11.350;2022-10-22T06:47:45;13.90;99.90
47779;DHT22;33538;48.432;11.350;2022-10-22T06:50:13;13.90;99.90
47779;DHT22;33538;48.432;11.350;2022-10-22T06:52:40;13.90;99.90
47779;DHT22;33538;48.432;11.350;2022-10-22T06:55:07;13.90;99.90
47779;DHT22;33538;48.432;11.350;2022-10-22T06:57:34;13.90;99.90
47779;DHT22;33538;48.432;11.350;2022-10-22T07:00:01;13.90;99.90
47779;DHT22;33538;48.432;11.350;2022-10-22T07:02:27;13.90;99.90
47779;DHT22;33538;48.432;11.350;2022-10-22T07:04:54;13.90;99.90
47779;DHT22;33538;48.432;11.350;2022-10-22T07:07:22;13.90;99.90
47779;DHT22;33538;48.432;11.350;2022-10-22T07:09:49;13.90;99.90
47779;DHT22;33538;48.432;11.350;2022-10-22T07:12:17;13.90;99.90
47779;DHT22;33538;48.432;11.350;2022-10-22T07:14:44;13.90;99.90
47779;DHT22;33538;48.432;11.350;2022-10-22T07:17:11;13.90;99.90
47779;DHT22;33538;48.432;11.350;2022-10-22T07:19:39;13.90;99.90
47779;DHT22;33538;48.432;11.350;2022-10-22T07:22:06;14.00;99.90
47779;DHT22;33538;48.432;11.350;2022-10-22T07:24:34;13.90;99.90
47779;DHT22;33538;48.432;11.350;2022-10-22T07:27:01;14.00;99.90
47779;DHT22;33538;48.432;11.350;2022-10-22T07:29:29;13.90;99.90
47779;DHT22;33538;48.432;11.350;2022-10-22T07:31:56;14.00;99.90
47779;DHT22;33538;48.432;11.350;2022-10-22T07:34:22;14.00;99.90
47779;DHT22;33538;48.432;11.350;2022-10-22T07:36:49;14.00;99.90
47779;DHT22;33538;48.432;11.350;2022-10-22T07:39:19;14.00;99.90
47779;DHT22;33538;48.432;11.350;2022-10-22T07:41:56;14.00;99.90
47779;DHT22;33538;48.432;11.350;2022-10-22T07:44:23;14.00;99.90
47779;DHT22;33538;48.432;11.350;2022-10-22T07:46:49;14.00;99.90
47779;DHT22;33538;48.432;11.350;2022-10-22T07:49:16;14.10;99.90
47779;DHT22;33538;48.432;11.350;2022-10-22T07:51:43;14.10;99.90
47779;DHT22;33538;48.432;11.350;2022-10-22T07:54:10;14.10;99.90
47779;DHT22;33538;48.432;11.350;2022-10-22T07:56:36;14.10;99.90
47779;DHT22;33538;48.432;11.350;2022-10-22T07:59:05;14.20;99.90
47779;DHT22;33538;48.432;11.350;2022-10-22T08:01:31;14.20;99.90
47779;DHT22;33538;48.432;11.350;2022-10-22T08:03:58;14.10;99.90
47779;DHT22;33538;48.432;11.350;2022-10-22T08:06:25;14.10;99.90
47779;DHT22;33538;48.432;11.350;2022-10-22T08:08:52;14.20;99.90
47779;DHT22;33538;48.432;11.350;2022-10-22T08:11:19;14.20;99.90
47779;DHT22;33538;48.432;11.350;2022-10-22T08:13:45;14.20;99.90
47779;DHT22;33538;48.432;11.350;2022-10-22T08:16:14;14.20;99.90
47779;DHT22;33538;48.432;11.350;2022-10-22T08:18:41;14.20;99.90
47779;DHT22;33538;48.432;11.350;2022-10-22T08:21:08;14.20;99.90
47779;DHT22;33538;48.432;11.350;2022-10-22T08:23:37;14.20;99.90
47779;DHT22;33538;48.432;11.350;2022-10-22T08:26:05;14.20;99.90
47779;DHT22;33538;48.432;11.350;2022-10-22T08:28:31;14.20;99.90
47779;DHT22;33538;48.432;11.350;2022-10-22T08:30:58;14.20;99.90
47779;DHT22;33538;48.432;11.350;2022-10-22T08:33:26;14.20;99.90
47779;DHT22;33538;48.432;11.350;2022-10-22T08:35:53;14.20;99.90
47779;DHT22;33538;48.432;11.350;2022-10-22T08:38:20;14.20;99.90
47779;DHT22;33538;48.432;11.350;2022-10-22T08:40:48;14.20;99.90
47779;DHT22;33538;48.432;11.350;2022-10-22T08:43:45;14.20;99.90
47779;DHT22;33538;48.432;11.350;2022-10-22T08:46:29;14.20;99.90
47779;DHT22;33538;48.432;11.350;2022-10-22T08:49:03;14.20;99.90
47779;DHT22;33538;48.432;11.350;2022-10-22T08:51:32;14.20;99.90
47779;DHT22;33538;48.432;11.350;2022-10-22T08:54:25;14.20;99.90
47779;DHT22;33538;48.432;11.350;2022-10-22T08:57:02;14.20;99.90
47779;DHT22;33538;48.432;11.350;2022-10-22T08:59:36;14.20;99.90
47779;DHT22;33538;48.432;11.350;2022-10-22T09:02:17;14.30;99.90
47779;DHT22;33538;48.432;11.350;2022-10-22T09:04:51;14.30;99.90
47779;DHT22;33538;48.432;11.350;2022-10-22T09:07:21;14.30;99.90
47779;DHT22;33538;48.432;11.350;2022-10-22T09:09:50;14.30;99.90
47779;DHT22;33538;48.432;11.350;2022-10-22T09:12:17;14.30;99.90
47779;DHT22;33538;48.432;11.350;2022-10-22T09:14:46;14.30;99.90
47779;DHT22;33538;48.432;11.350;2022-10-22T09:17:17;14.30;99.90
47779;DHT22;33538;48.432;11.350;2022-10-22T09:19:57;14.30;99.90
47779;DHT22;33538;48.432;11.350;2022-10-22T09:22:32;14.30;99.90
47779;DHT22;33538;48.432;11.350;2022-10-22T09:25:13;14.40;99.90
47779;DHT22;33538;48.432;11.350;2022-10-22T09:27:41;14.30;99.90
47779;DHT22;33538;48.432;11.350;2022-10-22T09:30:14;14.40;99.90
47779;DHT22;33538;48.432;11.350;2022-10-22T09:32:41;14.40;99.90
47779;DHT22;33538;48.432;11.350;2022-10-22T09:35:11;14.40;99.90
47779;DHT22;33538;48.432;11.350;2022-10-22T09:37:48;14.40;99.90
47779;DHT22;33538;48.432;11.350;2022-10-22T09:40:15;14.40;99.90
47779;DHT22;33538;48.432;11.350;2022-10-22T09:42:44;14.40;99.90
47779;DHT22;33538;48.432;11.350;2022-10-22T09:45:17;14.40;99.90
47779;DHT22;33538;48.432;11.350;2022-10-22T09:47:44;14.40;99.90
47779;DHT22;33538;48.432;11.350;2022-10-22T09:50:37;14.40;99.90
47779;DHT22;33538;48.432;11.350;2022-10-22T09:53:11;14.40;99.90
47779;DHT22;33538;48.432;11.350;2022-10-22T09:55:40;14.40;99.90
47779;DHT22;33538;48.432;11.350;2022-10-22T09:58:10;14.40;99.90
47779;DHT22;33538;48.432;11.350;2022-10-22T10:00:38;14.40;99.90
47779;DHT22;33538;48.432;11.350;2022-10-22T10:03:05;14.40;99.90
47779;DHT22;33538;48.432;11.350;2022-10-22T10:05:34;14.40;99.90
47779;DHT22;33538;48.432;11.350;2022-10-22T10:08:07;14.40;99.90
47779;DHT22;33538;48.432;11.350;2022-10-22T10:10:42;14.40;99.90
47779;DHT22;33538;48.432;11.350;2022-10-22T10:13:29;14.50;99.90
47779;DHT22;33538;48.432;11.350;2022-10-22T10:16:06;14.40;99.90
47779;DHT22;33538;48.432;11.350;2022-10-22T10:18:46;14.40;99.90
47779;DHT22;33538;48.432;11.350;2022-10-22T10:21:25;14.40;99.90
47779;DHT22;33538;48.432;11.350;2022-10-22T10:24:00;14.50;99.90
47779;DHT22;33538;48.432;11.350;2022-10-22T10:26:33;14.50;99.90
47779;DHT22;33538;48.432;11.350;2022-10-22T10:29:22;14.50;99.90
47779;DHT22;33538;48.432;11.350;2022-10-22T10:32:05;14.50;99.90
47779;DHT22;33538;48.432;11.350;2022-10-22T10:34:42;14.50;99.90
47779;DHT22;33538;48.432;11.350;2022-10-22T10:37:19;14.50;99.90
47779;DHT22;33538;48.432;11.350;2022-10-22T10:40:06;14.50;99.90
47779;DHT22;33538;48.432;11.350;2022-10-22T10:42:42;14.50;99.90
47779;DHT22;33538;48.432;11.350;2022-10-22T10:45:16;14.50;99.90
47779;DHT22;33538;48.432;11.350;2022-10-22T10:48:00;14.60;99.90
47779;DHT22;33538;48.432;11.350;2022-10-22T10:50:40;14.60;99.90
47779;DHT22;33538;48.432;11.350;2022-10-22T10:53:18;14.60;99.90
47779;DHT22;33538;48.432;11.350;2022-10-22T10:55:53;14.60;99.90
47779;DHT22;33538;48.432;11.350;2022-10-22T10:58:30;14.60;99.90
47779;DHT22;33538;48.432;11.350;2022-10-22T11:01:03;14.60;99.90
47779;DHT22;33538;48.432;11.350;2022-10-22T11:03:58;14.70;99.90
47779;DHT22;33538;48.432;11.350;2022-10-22T11:06:30;14.70;99.90
47779;DHT22;33538;48.432;11.350;2022-10-22T11:09:04;14.70;99.90
47779;DHT22;33538;48.432;11.350;2022-10-22T11:11:35;14.70;99.90
47779;DHT22;33538;48.432;11.350;2022-10-22T11:14:10;14.70;99.90
47779;DHT22;33538;48.432;11.350;2022-10-22T11:16:41;14.70;99.90
47779;DHT22;33538;48.432;11.350;2022-10-22T11:19:13;14.70;99.90
47779;DHT22;33538;48.432;11.350;2022-10-22T11:21:52;14.80;99.90
47779;DHT22;33538;48.432;11.350;2022-10-22T11:24:25;14.80;99.90
47779;DHT22;33538;48.432;11.350;2022-10-22T11:26:55;14.80;99.90
47779;DHT22;33538;48.432;11.350;2022-10-22T11:29:26;14.80;99.90
47779;DHT22;33538;48.432;11.350;2022-10-22T11:31:58;14.80;99.90
47779;DHT22;33538;48.432;11.350;2022-10-22T11:34:30;14.80;99.90
47779;DHT22;33538;48.432;11.350;2022-10-22T11:37:00;14.80;99.90
47779;DHT22;33538;48.432;11.350;2022-10-22T11:39:37;14.80;99.90
47779;DHT22;33538;48.432;11.350;2022-10-22T11:42:06;14.90;99.90
47779;DHT22;33538;48.432;11.350;2022-10-22T11:44:45;14.90;99.90
47779;DHT22;33538;48.432;11.350;2022-10-22T11:47:18;14.90;99.90
47779;DHT22;33538;48.432;11.350;2022-10-22T11:49:55;14.90;99.90
47779;DHT22;33538;48.432;11.350;2022-10-22T11:52:26;14.90;99.90
47779;DHT22;33538;48.432;11.350;2022-10-22T11:54:56;15.00;99.90
47779;DHT22;33538;48.432;11.350;2022-10-22T11:57:35;15.00;99.90
47779;DHT22;33538;48.432;11.350;2022-10-22T12:00:09;15.00;99.90
47779;DHT22;33538;48.432;11.350;2022-10-22T12:02:39;15.00;99.90
47779;DHT22;33538;48.432;11.350;2022-10-22T12:05:34;15.00;99.90
47779;DHT22;33538;48.432;11.350;2022-10-22T12:08:19;15.00;99.90
47779;DHT22;33538;48.432;11.350;2022-10-22T12:11:01;15.00;99.90
47779;DHT22;33538;48.432;11.350;2022-10-22T12:13:31;15.10;99.90
47779;DHT22;33538;48.432;11.350;2022-10-22T12:16:01;15.10;99.90
47779;DHT22;33538;48.432;11.350;2022-10-22T12:18:34;15.10;99.90
47779;DHT22;33538;48.432;11.350;2022-10-22T12:21:04;15.10;99.90
47779;DHT22;33538;48.432;11.350;2022-10-22T12:23:34;15.20;99.90
47779;DHT22;33538;48.432;11.350;2022-10-22T12:26:04;15.20;99.90
47779;DHT22;33538;48.432;11.350;2022-10-22T12:28:37;15.20;99.90
47779;DHT22;33538;48.432;11.350;2022-10-22T12:31:05;15.20;99.90
47779;DHT22;33538;48.432;11.350;2022-10-22T12:33:32;15.30;99.90
47779;DHT22;33538;48.432;11.350;2022-10-22T12:35:59;15.30;99.90
47779;DHT22;33538;48.432;11.350;2022-10-22T12:38:25;15.30;99.90
47779;DHT22;33538;48.432;11.350;2022-10-22T12:40:54;15.40;99.90
47779;DHT22;33538;48.432;11.350;2022-10-22T12:43:27;15.40;99.90
47779;DHT22;33538;48.432;11.350;2022-10-22T12:45:54;15.40;99.90
47779;DHT22;33538;48.432;11.350;2022-10-22T12:48:24;15.50;99.90
47779;DHT22;33538;48.432;11.350;2022-10-22T12:50:53;15.50;99.90
47779;DHT22;33538;48.432;11.350;2022-10-22T12:53:23;15.50;99.90
47779;DHT22;33538;48.432;11.350;2022-10-22T12:55:52;15.50;99.90
47779;DHT22;33538;48.432;11.350;2022-10-22T12:58:21;15.50;99.90
47779;DHT22;33538;48.432;11.350;2022-10-22T13:00:54;15.60;99.90
47779;DHT22;33538;48.432;11.350;2022-10-22T13:03:30;15.60;99.90
47779;DHT22;33538;48.432;11.350;2022-10-22T13:06:11;15.60;99.90
47779;DHT22;33538;48.432;11.350;2022-10-22T13:08:38;15.60;99.90
47779;DHT22;33538;48.432;11.350;2022-10-22T13:11:07;15.60;99.90
47779;DHT22;33538;48.432;11.350;2022-10-22T13:13:41;15.60;99.90
47779;DHT22;33538;48.432;11.350;2022-10-22T13:16:17;15.70;99.90
47779;DHT22;33538;48.432;11.350;2022-10-22T13:18:45;15.70;99.90
47779;DHT22;33538;48.432;11.350;2022-10-22T13:21:25;15.70;99.90
47779;DHT22;33538;48.432;11.350;2022-10-22T13:23:54;15.70;99.90
47779;DHT22;33538;48.432;11.350;2022-10-22T13:26:21;15.70;99.90
47779;DHT22;33538;48.432;11.350;2022-10-22T13:28:51;15.70;99.90
47779;DHT22;33538;48.432;11.350;2022-10-22T13:31:23;15.80;99.90
47779;DHT22;33538;48.432;11.350;2022-10-22T13:33:52;15.80;99.90
47779;DHT22;33538;48.432;11.350;2022-10-22T13:36:21;15.80;99.90
47779;DHT22;33538;48.432;11.350;2022-10-22T13:38:48;15.80;99.90
47779;DHT22;33538;48.432;11.350;2022-10-22T13:41:19;15.80;99.90
47779;DHT22;33538;48.432;11.350;2022-10-22T13:43:46;15.80;99.90
47779;DHT22;33538;48.432;11.350;2022-10-22T13:46:13;15.80;99.90
47779;DHT22;33538;48.432;11.350;2022-10-22T13:48:41;15.80;99.90
47779;DHT22;33538;48.432;11.350;2022-10-22T13:51:13;15.80;99.90
47779;DHT22;33538;48.432;11.350;2022-10-22T13:53:41;15.80;99.90
47779;DHT22;33538;48.432;11.350;2022-10-22T13:56:12;15.80;99.90
47779;DHT22;33538;48.432;11.350;2022-10-22T13:58:38;15.80;99.90
47779;DHT22;33538;48.432;11.350;2022-10-22T14:01:13;15.80;99.90
47779;DHT22;33538;48.432;11.350;2022-10-22T14:03:43;15.80;99.90
47779;DHT22;33538;48.432;11.350;2022-10-22T14:06:12;15.90;99.90
47779;DHT22;33538;48.432;11.350;2022-10-22T14:08:40;15.90;99.90
47779;DHT22;33538;48.432;11.350;2022-10-22T14:11:09;15.90;99.90
47779;DHT22;33538;48.432;11.350;2022-10-22T14:13:36;15.90;99.90
47779;DHT22;33538;48.432;11.350;2022-10-22T14:16:04;15.90;99.90
47779;DHT22;33538;48.432;11.350;2022-10-22T14:18:35;15.90;99.90
47779;DHT22;33538;48.432;11.350;2022-10-22T14:21:04;15.90;99.90
47779;DHT22;33538;48.432;11.350;2022-10-22T14:23:32;15.90;99.90
47779;DHT22;33538;48.432;11.350;2022-10-22T14:26:01;15.90;99.90
47779;DHT22;33538;48.432;11.350;2022-10-22T14:28:28;15.90;99.90
47779;DHT22;33538;48.432;11.350;2022-10-22T14:30:57;15.90;99.90
47779;DHT22;33538;48.432;11.350;2022-10-22T14:33:26;15.90;99.90
47779;DHT22;33538;48.432;11.350;2022-10-22T14:35:57;15.90;99.90
47779;DHT22;33538;48.432;11.350;2022-10-22T14:38:26;16.00;99.90
47779;DHT22;33538;48.432;11.350;2022-10-22T14:40:53;16.00;99.90
47779;DHT22;33538;48.432;11.350;2022-10-22T14:43:22;16.00;99.90
47779;DHT22;33538;48.432;11.350;2022-10-22T14:45:49;16.00;99.90
47779;DHT22;33538;48.432;11.350;2022-10-22T14:48:16;16.00;99.90
47779;DHT22;33538;48.432;11.350;2022-10-22T14:50:48;16.00;99.90
47779;DHT22;33538;48.432;11.350;2022-10-22T14:53:15;16.00;99.90
47779;DHT22;33538;48.432;11.350;2022-10-22T14:55:44;16.00;99.90
47779;DHT22;33538;48.432;11.350;2022-10-22T14:58:11;16.00;99.90
47779;DHT22;33538;48.432;11.350;2022-10-22T15:00:39;16.00;99.90
47779;DHT22;33538;48.432;11.350;2022-10-22T15:03:06;16.00;99.90
47779;DHT22;33538;48.432;11.350;2022-10-22T15:05:33;16.00;99.90
47779;DHT22;33538;48.432;11.350;2022-10-22T15:08:00;16.00;99.90
47779;DHT22;33538;48.432;11.350;2022-10-22T15:10:27;16.00;99.90
47779;DHT22;33538;48.432;11.350;2022-10-22T15:12:55;16.00;99.90
47779;DHT22;33538;48.432;11.350;2022-10-22T15:15:22;16.00;99.90
47779;DHT22;33538;48.432;11.350;2022-10-22T15:17:50;16.00;99.90
47779;DHT22;33538;48.432;11.350;2022-10-22T15:20:17;16.00;99.90
47779;DHT22;33538;48.432;11.350;2022-10-22T15:22:43;16.00;99.90
47779;DHT22;33538;48.432;11.350;2022-10-22T15:25:12;16.00;99.90
47779;DHT22;33538;48.432;11.350;2022-10-22T15:27:39;16.00;99.90
47779;DHT22;33538;48.432;11.350;2022-10-22T15:30:08;15.90;99.90
47779;DHT22;33538;48.432;11.350;2022-10-22T15:32:35;15.90;99.90
47779;DHT22;33538;48.432;11.350;2022-10-22T15:35:05;15.90;99.90
47779;DHT22;33538;48.432;11.350;2022-10-22T15:37:32;15.90;99.90
47779;DHT22;33538;48.432;11.350;2022-10-22T15:39:59;15.90;99.90